createdAt,value
2018-08-14T00:00:50.490Z,12.43
2018-08-14T00:03:20.597Z,14.97
2018-08-14T00:05:50.500Z,11.70
2018-08-14T00:08:20.714Z,19.83
2018-08-14T00:10:49.737Z,13.07
2018-08-14T00:13:18.795Z,13.70
2018-08-14T00:15:49.147Z,12.73
2018-08-14T00:18:18.251Z,12.20
2018-08-14T00:20:47.056Z,12.90
2018-08-14T00:23:16.953Z,17.80
2018-08-14T00:25:46.503Z,15.90
2018-08-14T00:28:16.641Z,12.27
2018-08-14T00:30:45.670Z,12.70
2018-08-14T00:33:14.553Z,12.60
2018-08-14T00:35:43.702Z,13.57
2018-08-14T00:38:12.514Z,17.50
2018-08-14T00:40:42.468Z,13.07
2018-08-14T00:43:12.396Z,13.93
2018-08-14T00:45:42.905Z,13.43
2018-08-14T00:48:13.178Z,12.47
2018-08-14T00:50:43.487Z,13.20
2018-08-14T00:53:13.687Z,11.33
2018-08-14T00:55:42.821Z,19.00
2018-08-14T00:58:13.584Z,13.30
2018-08-14T01:00:44.809Z,15.47
2018-08-14T01:03:13.751Z,12.13
2018-08-14T01:05:42.508Z,12.37
2018-08-14T01:08:12.382Z,12.10
2018-08-14T01:10:41.108Z,12.97
2018-08-14T01:13:11.006Z,10.90
2018-08-14T01:15:40.525Z,12.40
2018-08-14T01:18:10.169Z,14.53
2018-08-14T01:20:48.261Z,13.17
2018-08-14T01:23:18.100Z,11.90
2018-08-14T01:25:48.147Z,11.60
2018-08-14T01:28:17.399Z,11.90
2018-08-14T01:30:46.359Z,12.00
2018-08-14T01:33:16.758Z,10.97
2018-08-14T01:35:46.359Z,11.30
2018-08-14T01:38:15.924Z,11.20
2018-08-14T01:40:45.980Z,13.90
2018-08-14T01:43:14.886Z,11.27
2018-08-14T01:45:44.164Z,12.07
2018-08-14T01:48:14.275Z,11.60
2018-08-14T01:50:44.408Z,13.10
2018-08-14T01:53:13.651Z,20.77
2018-08-14T01:55:43.256Z,10.63
2018-08-14T01:58:13.395Z,23.13
2018-08-14T02:00:44.405Z,12.70
2018-08-14T02:03:14.624Z,15.60
2018-08-14T02:05:44.308Z,13.97
2018-08-14T02:08:14.370Z,11.83
2018-08-14T02:10:44.233Z,11.40
2018-08-14T02:13:13.656Z,12.00
2018-08-14T02:15:43.174Z,13.30
2018-08-14T02:18:14.965Z,14.40
2018-08-14T02:20:45.477Z,18.13
2018-08-14T02:23:15.806Z,11.40
2018-08-14T02:25:44.560Z,13.80
2018-08-14T02:28:14.294Z,14.93
2018-08-14T02:30:44.356Z,23.57
2018-08-14T02:33:15.112Z,14.03
2018-08-14T02:35:44.778Z,14.67
2018-08-14T02:38:14.665Z,13.13
2018-08-14T02:40:45.303Z,12.50
2018-08-14T02:43:15.050Z,18.60
2018-08-14T02:45:45.709Z,13.33
2018-08-14T02:48:16.422Z,16.60
2018-08-14T02:50:46.110Z,12.20
2018-08-14T02:53:15.862Z,14.30
2018-08-14T02:55:45.418Z,15.53
2018-08-14T02:58:14.694Z,12.30
2018-08-14T03:00:43.569Z,13.77
2018-08-14T03:03:13.173Z,14.57
2018-08-14T03:05:42.640Z,13.30
2018-08-14T03:08:12.720Z,12.83
2018-08-14T03:10:41.840Z,13.13
2018-08-14T03:13:11.633Z,13.20
2018-08-14T03:15:41.580Z,13.93
2018-08-14T03:18:10.564Z,14.70
2018-08-14T03:20:40.337Z,14.00
2018-08-14T03:23:10.866Z,14.03
2018-08-14T03:25:40.096Z,13.93
2018-08-14T03:28:10.146Z,14.73
2018-08-14T03:30:38.910Z,15.53
2018-08-14T03:33:08.126Z,25.57
2018-08-14T03:35:37.716Z,15.33
2018-08-14T03:38:06.981Z,20.17
2018-08-14T03:40:35.932Z,15.60
2018-08-14T03:43:04.767Z,15.90
2018-08-14T03:45:36.753Z,13.73
2018-08-14T03:48:06.905Z,15.20
2018-08-14T03:50:36.174Z,14.17
2018-08-14T03:53:07.183Z,16.50
2018-08-14T03:55:36.281Z,14.60
2018-08-14T03:58:06.350Z,21.20
2018-08-14T04:00:35.290Z,14.00
2018-08-14T04:03:04.882Z,17.17
2018-08-14T04:05:35.125Z,15.80
2018-08-14T04:08:05.782Z,14.80
2018-08-14T04:10:35.032Z,16.60
2018-08-14T04:13:04.075Z,16.27
2018-08-14T04:15:35.054Z,22.50
2018-08-14T04:18:10.148Z,14.83
2018-08-14T04:20:40.144Z,17.80
2018-08-14T04:23:09.604Z,16.60
2018-08-14T04:25:38.561Z,16.77
2018-08-14T04:28:08.429Z,16.50
2018-08-14T04:30:38.725Z,17.53
2018-08-14T04:33:08.448Z,20.23
2018-08-14T04:35:38.570Z,16.03
2018-08-14T04:38:07.749Z,16.13
2018-08-14T04:40:37.093Z,17.77
2018-08-14T04:43:07.405Z,19.63
2018-08-14T04:45:37.271Z,23.20
2018-08-14T04:48:06.167Z,19.00
2018-08-14T04:50:35.014Z,19.27
2018-08-14T04:53:04.730Z,19.40
2018-08-14T04:55:34.904Z,25.43
2018-08-14T04:58:05.680Z,18.73
2018-08-14T05:00:35.254Z,20.90
2018-08-14T05:03:06.206Z,24.10
2018-08-14T05:05:36.873Z,20.87
2018-08-14T05:08:07.379Z,23.47
2018-08-14T05:10:36.375Z,22.70
2018-08-14T05:13:06.179Z,34.50
2018-08-14T05:15:35.143Z,23.10
2018-08-14T05:18:06.217Z,25.00
2018-08-14T05:20:35.905Z,28.60
2018-08-14T05:23:05.823Z,24.43
2018-08-14T05:25:35.208Z,26.63
2018-08-14T05:28:05.079Z,24.50
2018-08-14T05:30:34.768Z,30.00
2018-08-14T05:33:03.523Z,26.83
2018-08-14T05:35:34.461Z,25.90
2018-08-14T05:38:05.249Z,21.90
2018-08-14T05:40:34.193Z,27.23
2018-08-14T05:43:03.461Z,26.10
2018-08-14T05:45:32.323Z,24.27
2018-08-14T05:48:02.912Z,30.53
2018-08-14T05:50:32.057Z,26.57
2018-08-14T05:53:01.207Z,24.80
2018-08-14T05:55:30.135Z,23.40
2018-08-14T05:58:00.582Z,29.37
2018-08-14T06:00:29.611Z,24.67
2018-08-14T06:02:59.457Z,27.67
2018-08-14T06:05:29.822Z,23.83
2018-08-14T06:07:59.075Z,26.13
2018-08-14T06:10:28.085Z,22.20
2018-08-14T06:12:58.105Z,28.17
2018-08-14T06:15:26.900Z,23.43
2018-08-14T06:17:56.368Z,29.03
2018-08-14T06:20:25.203Z,25.60
2018-08-14T06:22:56.241Z,23.90
2018-08-14T06:25:26.146Z,22.10
2018-08-14T06:27:54.886Z,19.77
2018-08-14T06:30:24.616Z,23.47
2018-08-14T06:32:55.570Z,20.30
2018-08-14T06:35:25.785Z,30.13
2018-08-14T06:37:55.621Z,26.13
2018-08-14T06:40:26.390Z,21.83
2018-08-14T06:42:55.777Z,24.00
2018-08-14T06:45:26.492Z,20.20
2018-08-14T06:47:57.137Z,22.50
2018-08-14T06:50:26.908Z,22.33
2018-08-14T06:52:57.578Z,25.40
2018-08-14T06:55:28.751Z,23.87
2018-08-14T06:57:58.670Z,20.10
2018-08-14T07:00:27.843Z,20.90
2018-08-14T07:02:56.813Z,20.93
2018-08-14T07:05:26.147Z,19.23
2018-08-14T07:07:56.846Z,21.60
2018-08-14T07:10:27.131Z,22.90
2018-08-14T07:12:56.600Z,21.63
2018-08-14T07:15:26.137Z,15.47
2018-08-14T07:17:56.033Z,21.70
2018-08-14T07:20:25.520Z,18.30
2018-08-14T07:22:54.247Z,19.70
2018-08-14T07:25:24.384Z,17.27
2018-08-14T07:27:53.884Z,16.10
2018-08-14T07:30:25.276Z,22.67
2018-08-14T07:32:55.893Z,29.10
2018-08-14T07:35:25.685Z,17.80
2018-08-14T07:37:55.289Z,17.93
2018-08-14T07:40:25.295Z,17.37
2018-08-14T07:42:55.279Z,19.00
2018-08-14T07:45:25.337Z,25.17
2018-08-14T07:47:55.220Z,20.60
2018-08-14T07:50:24.473Z,18.30
2018-08-14T07:52:53.339Z,16.10
2018-08-14T07:55:23.539Z,14.87
2018-08-14T07:57:53.742Z,15.10
2018-08-14T08:00:23.535Z,20.23
2018-08-14T08:02:54.327Z,20.27
2018-08-14T08:05:23.347Z,25.50
2018-08-14T08:07:52.576Z,18.40
2018-08-14T08:10:22.055Z,17.90
2018-08-14T08:12:51.666Z,18.70
2018-08-14T08:15:21.423Z,16.73
2018-08-14T08:17:50.965Z,19.30
2018-08-14T08:20:29.894Z,19.83
2018-08-14T08:22:59.818Z,17.93
2018-08-14T08:25:30.981Z,23.60
2018-08-14T08:28:01.535Z,23.33
2018-08-14T08:30:30.984Z,14.53
2018-08-14T08:33:01.500Z,18.43
2018-08-14T08:35:32.348Z,20.27
2018-08-14T08:38:01.310Z,18.90
2018-08-14T08:40:31.880Z,19.30
2018-08-14T08:43:02.725Z,18.00
2018-08-14T08:45:33.627Z,18.73
2018-08-14T08:48:22.158Z,18.90
2018-08-14T08:50:51.655Z,22.77
2018-08-14T08:53:21.452Z,16.10
2018-08-14T08:55:51.317Z,22.90
2018-08-14T08:58:21.553Z,20.63
2018-08-14T09:00:50.864Z,17.30
2018-08-14T09:03:20.325Z,15.53
2018-08-14T09:05:50.788Z,15.70
2018-08-14T09:08:19.623Z,20.47
2018-08-14T09:10:48.856Z,15.80
2018-08-14T09:13:18.410Z,19.93
2018-08-14T09:15:48.645Z,17.00
2018-08-14T09:18:17.763Z,16.70
2018-08-14T09:20:46.782Z,17.07
2018-08-14T09:23:15.902Z,18.27
2018-08-14T09:25:45.412Z,18.77
2018-08-14T09:28:13.221Z,19.97
2018-08-14T09:30:42.889Z,21.67
2018-08-14T09:33:11.558Z,20.17
2018-08-14T09:35:40.988Z,15.80
2018-08-14T09:38:11.363Z,17.33
2018-08-14T09:40:47.902Z,15.90
2018-08-14T09:43:17.897Z,17.70
2018-08-14T09:45:48.242Z,16.03
2018-08-14T09:48:17.913Z,16.97
2018-08-14T09:50:48.673Z,18.20
2018-08-14T09:53:18.848Z,46.40
2018-08-14T09:55:48.458Z,17.37
2018-08-14T09:58:18.110Z,15.30
2018-08-14T10:00:52.957Z,13.70
2018-08-14T10:03:29.312Z,16.40
2018-08-14T10:06:04.770Z,22.07
2018-08-14T10:08:33.985Z,17.40
2018-08-14T10:11:03.940Z,17.53
2018-08-14T10:13:34.137Z,22.00
2018-08-14T10:16:04.093Z,18.67
2018-08-14T10:18:33.659Z,18.27
2018-08-14T10:21:02.821Z,26.13
2018-08-14T10:23:32.897Z,22.70
2018-08-14T10:26:03.091Z,15.50
2018-08-14T10:28:32.959Z,15.97
2018-08-14T10:31:02.491Z,21.13
2018-08-14T10:33:32.117Z,20.60
2018-08-14T10:36:02.697Z,15.07
2018-08-14T10:38:32.358Z,16.23
2018-08-14T10:41:02.819Z,18.47
2018-08-14T10:43:32.269Z,17.93
2018-08-14T10:46:02.162Z,16.97
2018-08-14T10:48:31.050Z,19.53
2018-08-14T10:51:00.491Z,15.73
2018-08-14T10:53:29.437Z,14.43
2018-08-14T10:55:59.030Z,17.47
2018-08-14T10:58:28.224Z,17.00
2018-08-14T11:00:58.117Z,16.00
2018-08-14T11:03:27.268Z,17.17
2018-08-14T11:05:57.125Z,15.10
2018-08-14T11:08:26.771Z,13.37
2018-08-14T11:11:02.386Z,18.30
2018-08-14T11:13:32.596Z,16.37
2018-08-14T11:16:01.585Z,15.30
2018-08-14T11:18:32.631Z,20.57
2018-08-14T11:21:02.687Z,18.20
2018-08-14T11:23:31.840Z,13.00
2018-08-14T11:26:01.759Z,14.17
2018-08-14T11:28:30.937Z,31.10
2018-08-14T11:31:00.333Z,12.60
2018-08-14T11:33:29.396Z,15.43
2018-08-14T11:36:03.471Z,14.50
2018-08-14T11:38:32.664Z,14.63
2018-08-14T11:41:01.407Z,19.27
2018-08-14T11:43:32.023Z,13.77
2018-08-14T11:46:00.968Z,19.60
2018-08-14T11:48:31.870Z,20.67
2018-08-14T11:51:02.636Z,16.90
2018-08-14T11:53:32.569Z,21.57
2018-08-14T11:56:02.130Z,14.27
2018-08-14T11:58:31.377Z,14.93
2018-08-14T12:01:00.383Z,17.40
2018-08-14T12:03:30.345Z,24.73
2018-08-14T12:06:00.633Z,19.13
2018-08-14T12:08:29.536Z,14.40
2018-08-14T12:10:58.161Z,15.43
2018-08-14T12:13:28.897Z,17.63
2018-08-14T12:15:59.158Z,25.30
2018-08-14T12:18:28.707Z,15.73
2018-08-14T12:20:58.960Z,16.57
2018-08-14T12:23:27.981Z,20.10
2018-08-14T12:25:56.743Z,13.70
2018-08-14T12:28:27.518Z,14.00
2018-08-14T12:30:58.017Z,12.87
2018-08-14T12:33:27.692Z,14.00
2018-08-14T12:35:57.475Z,20.47
2018-08-14T12:38:26.425Z,16.43
2018-08-14T12:40:55.954Z,21.43
2018-08-14T12:43:24.960Z,16.53
2018-08-14T12:45:54.507Z,18.83
2018-08-14T12:48:24.583Z,14.07
2018-08-14T12:50:54.639Z,14.63
2018-08-14T12:53:24.808Z,22.93
2018-08-14T12:55:53.729Z,14.57
2018-08-14T12:58:23.072Z,12.67
2018-08-14T13:00:52.598Z,13.10
2018-08-14T13:03:22.560Z,14.70
2018-08-14T13:05:52.768Z,15.27
2018-08-14T13:08:22.040Z,15.90
2018-08-14T13:10:51.533Z,15.63
2018-08-14T13:13:20.372Z,21.33
2018-08-14T13:15:50.311Z,16.83
2018-08-14T13:18:20.408Z,14.77
2018-08-14T13:20:49.830Z,19.60
2018-08-14T13:23:19.792Z,16.60
2018-08-14T13:25:49.934Z,14.67
2018-08-14T13:28:22.013Z,12.93
2018-08-14T13:30:51.049Z,13.57
2018-08-14T13:33:21.018Z,14.53
2018-08-14T13:35:50.922Z,14.93
2018-08-14T13:38:20.404Z,14.60
2018-08-14T13:40:50.307Z,14.13
2018-08-14T13:43:19.678Z,12.13
2018-08-14T13:45:49.069Z,12.00
2018-08-14T13:48:18.645Z,13.23
2018-08-14T13:50:48.996Z,19.43
2018-08-14T13:53:18.319Z,16.03
2018-08-14T13:55:48.000Z,14.10
2018-08-14T13:58:17.818Z,16.27
2018-08-14T14:00:47.472Z,22.80
2018-08-14T14:03:17.864Z,15.57
2018-08-14T14:05:47.897Z,15.17
2018-08-14T14:08:16.711Z,13.37
2018-08-14T14:10:45.537Z,23.10
2018-08-14T14:13:14.310Z,13.43
2018-08-14T14:15:43.858Z,12.40
2018-08-14T14:18:14.122Z,15.40
2018-08-14T14:20:45.043Z,12.40
2018-08-14T14:23:19.763Z,11.93
2018-08-14T14:25:49.512Z,11.50
2018-08-14T14:28:18.941Z,11.30
2018-08-14T14:30:47.761Z,10.80
2018-08-14T14:33:16.540Z,13.53
2018-08-14T14:35:45.457Z,10.97
2018-08-14T14:38:14.243Z,13.97
2018-08-14T14:40:43.149Z,15.77
2018-08-14T14:43:11.947Z,14.57
2018-08-14T14:45:41.146Z,10.83
2018-08-14T14:48:09.881Z,11.00
2018-08-14T14:50:38.718Z,14.30
2018-08-14T14:53:07.505Z,16.43
2018-08-14T14:55:36.387Z,16.00
2018-08-14T14:58:05.414Z,16.30
2018-08-14T15:00:35.396Z,11.23
2018-08-14T15:03:04.854Z,14.10
2018-08-14T15:05:33.700Z,14.33
2018-08-14T15:08:02.445Z,13.50
2018-08-14T15:10:31.760Z,10.30
2018-08-14T15:13:00.549Z,10.50
2018-08-14T15:15:29.406Z,13.40
2018-08-14T15:17:58.318Z,11.47
2018-08-14T15:20:28.006Z,12.60
2018-08-14T15:22:58.448Z,11.13
2018-08-14T15:25:28.350Z,10.70
2018-08-14T15:29:04.361Z,11.13
2018-08-14T15:31:34.919Z,12.60
2018-08-14T15:34:04.533Z,12.10
2018-08-14T15:36:34.103Z,11.40
2018-08-14T15:39:05.626Z,11.10
2018-08-14T15:41:34.473Z,11.07
2018-08-14T15:44:03.853Z,13.50
2018-08-14T15:46:33.718Z,11.80
2018-08-14T15:49:03.482Z,14.53
2018-08-14T15:51:32.487Z,15.70
2018-08-14T15:54:02.002Z,11.87
2018-08-14T15:56:32.071Z,12.13
2018-08-14T15:59:02.833Z,12.20
2018-08-14T16:01:32.947Z,11.47
2018-08-14T16:04:02.601Z,14.03
2018-08-14T16:06:31.396Z,15.63
2018-08-14T16:09:01.556Z,11.40
2018-08-14T16:11:32.448Z,12.33
2018-08-14T16:14:01.390Z,13.40
2018-08-14T16:16:31.341Z,17.67
2018-08-14T16:19:00.978Z,19.60
2018-08-14T16:21:30.728Z,12.37
2018-08-14T16:24:00.481Z,12.30
2018-08-14T16:26:30.245Z,12.70
2018-08-14T16:28:59.507Z,13.00
2018-08-14T16:31:30.208Z,12.43
2018-08-14T16:33:59.676Z,14.93
2018-08-14T16:36:30.016Z,13.40
2018-08-14T16:38:59.499Z,12.00
2018-08-14T16:41:29.287Z,14.17
2018-08-14T16:43:59.163Z,13.50
2018-08-14T16:46:30.927Z,22.60
2018-08-14T16:49:01.888Z,14.20
2018-08-14T16:51:32.508Z,13.97
2018-08-14T16:54:02.270Z,11.80
2018-08-14T16:56:33.331Z,15.37
2018-08-14T16:59:03.290Z,13.77
2018-08-14T17:01:32.173Z,11.67
2018-08-14T17:04:02.505Z,10.73
2018-08-14T17:06:32.286Z,12.00
2018-08-14T17:09:01.057Z,10.60
2018-08-14T17:11:30.312Z,13.00
2018-08-14T17:13:59.076Z,12.87
2018-08-14T17:16:31.365Z,16.43
2018-08-14T17:19:00.379Z,12.07
2018-08-14T17:21:32.639Z,12.30
2018-08-14T17:24:05.342Z,14.03
2018-08-14T17:26:37.289Z,12.43
2018-08-14T17:29:07.062Z,11.77
2018-08-14T17:31:36.362Z,11.20
2018-08-14T17:34:06.698Z,13.80
2018-08-14T17:36:36.205Z,13.87
2018-08-14T17:39:08.409Z,15.07
2018-08-14T17:41:37.469Z,13.90
2018-08-14T17:44:07.930Z,12.50
2018-08-14T17:46:39.076Z,13.50
2018-08-14T17:49:08.604Z,12.73
2018-08-14T17:51:38.695Z,13.47
2018-08-14T17:54:10.547Z,12.17
2018-08-14T17:56:41.277Z,13.30
2018-08-14T17:59:10.168Z,13.17
2018-08-14T18:01:40.641Z,14.07
2018-08-14T18:04:12.168Z,13.80
2018-08-14T18:06:41.325Z,11.60
2018-08-14T18:09:12.420Z,18.50
2018-08-14T18:11:41.239Z,13.63
2018-08-14T18:14:10.120Z,12.60
2018-08-14T18:16:39.252Z,10.90
2018-08-14T18:19:08.084Z,10.67
2018-08-14T18:21:36.905Z,10.40
2018-08-14T18:24:06.921Z,12.70
2018-08-14T18:26:35.716Z,10.10
2018-08-14T18:29:05.523Z,10.77
2018-08-14T18:31:35.607Z,11.20
2018-08-14T18:34:06.547Z,11.67
2018-08-14T18:36:35.342Z,11.73
2018-08-14T18:39:06.535Z,12.57
2018-08-14T18:41:38.667Z,14.63
2018-08-14T18:44:08.076Z,17.43
2018-08-14T18:46:36.990Z,10.23
2018-08-14T18:49:07.129Z,10.90
2018-08-14T18:51:37.926Z,9.90
2018-08-14T18:54:07.191Z,10.77
2018-08-14T18:56:40.971Z,10.90
2018-08-14T18:59:09.952Z,15.10
2018-08-14T19:01:39.256Z,10.57
2018-08-14T19:04:08.915Z,9.60
2018-08-14T19:06:38.623Z,10.17
2018-08-14T19:09:09.319Z,9.90
2018-08-14T19:11:39.047Z,17.33
2018-08-14T19:14:08.833Z,9.50
2018-08-14T19:16:39.580Z,10.63
2018-08-14T19:19:08.776Z,9.23
2018-08-14T19:21:37.909Z,8.90
2018-08-14T19:24:07.123Z,10.07
2018-08-14T19:26:35.899Z,11.30
2018-08-14T19:29:04.707Z,9.60
2018-08-14T19:31:34.413Z,10.33
2018-08-14T19:34:04.402Z,10.13
2018-08-14T19:36:33.760Z,9.80
2018-08-14T19:39:04.576Z,10.10
2018-08-14T19:41:34.119Z,9.70
2018-08-14T19:44:03.122Z,10.13
2018-08-14T19:46:33.179Z,14.47
2018-08-14T19:49:02.977Z,10.13
2018-08-14T19:51:32.889Z,9.97
2018-08-14T19:54:02.620Z,12.83
2018-08-14T19:56:31.767Z,11.10
2018-08-14T19:59:01.691Z,9.83
2018-08-14T20:01:31.354Z,11.03
2018-08-14T20:04:01.969Z,10.87
2018-08-14T20:06:32.515Z,12.50
2018-08-14T20:09:02.500Z,10.60
2018-08-14T20:11:32.255Z,13.83
2018-08-14T20:14:01.323Z,12.10
2018-08-14T20:16:31.248Z,10.53
2018-08-14T20:19:01.689Z,12.40
2018-08-14T20:21:31.386Z,10.87
2018-08-14T20:24:01.646Z,11.60
2018-08-14T20:26:31.070Z,15.53
2018-08-14T20:29:00.685Z,11.30
2018-08-14T20:31:30.754Z,10.87
2018-08-14T20:34:00.302Z,10.00
2018-08-14T20:36:29.661Z,12.63
2018-08-14T20:38:59.701Z,11.63
2018-08-14T20:41:30.102Z,14.70
2018-08-14T20:44:00.474Z,10.23
2018-08-14T20:46:31.808Z,14.53
2018-08-14T20:49:01.783Z,13.07
2018-08-14T20:51:31.837Z,10.93
2018-08-14T20:54:01.986Z,10.63
2018-08-14T20:56:30.832Z,13.47
2018-08-14T20:59:00.720Z,13.87
2018-08-14T21:01:30.244Z,13.13
2018-08-14T21:03:59.417Z,12.57
2018-08-14T21:06:29.125Z,10.40
2018-08-14T21:08:59.828Z,13.30
2018-08-14T21:11:29.355Z,12.83
2018-08-14T21:13:59.080Z,10.87
2018-08-14T21:16:29.223Z,11.90
2018-08-14T21:19:00.782Z,13.20
2018-08-14T21:21:30.399Z,14.63
2018-08-14T21:24:00.421Z,18.60
2018-08-14T21:26:29.919Z,18.23
2018-08-14T21:29:00.251Z,13.10
2018-08-14T21:31:30.524Z,13.60
2018-08-14T21:34:00.417Z,19.73
2018-08-14T21:36:31.994Z,16.90
2018-08-14T21:39:02.170Z,13.80
2018-08-14T21:41:32.312Z,12.97
2018-08-14T21:44:01.787Z,14.73
2018-08-14T21:46:40.464Z,10.53
2018-08-14T21:49:10.981Z,17.47
2018-08-14T21:51:40.001Z,15.17
2018-08-14T21:54:13.510Z,15.63
2018-08-14T21:56:42.454Z,12.13
2018-08-14T21:59:13.260Z,12.87
2018-08-14T22:01:44.305Z,9.50
2018-08-14T22:04:14.583Z,13.73
2018-08-14T22:06:44.958Z,13.00
2018-08-14T22:09:13.864Z,11.57
2018-08-14T22:11:44.308Z,15.13
2018-08-14T22:14:14.227Z,12.03
2018-08-14T22:16:43.741Z,12.03
2018-08-14T22:19:14.343Z,13.50
2018-08-14T22:21:45.277Z,15.50
2018-08-14T22:24:14.860Z,11.03
2018-08-14T22:26:44.597Z,12.63
2018-08-14T22:29:14.529Z,14.20
2018-08-14T22:31:43.524Z,17.43
2018-08-14T22:34:12.567Z,13.77
2018-08-14T22:36:41.732Z,15.63
2018-08-14T22:39:11.931Z,10.07
2018-08-14T22:41:40.859Z,16.20
2018-08-14T22:44:10.000Z,13.13
2018-08-14T22:46:39.371Z,15.50
2018-08-14T22:49:09.143Z,14.70
2018-08-14T22:51:38.452Z,14.30
2018-08-14T22:54:08.898Z,17.57
2018-08-14T22:56:38.906Z,15.20
2018-08-14T22:59:08.178Z,15.33
2018-08-14T23:01:38.411Z,17.63
2018-08-14T23:04:07.618Z,12.83
2018-08-14T23:06:37.079Z,20.53
2018-08-14T23:09:08.165Z,16.63
2018-08-14T23:11:38.296Z,17.53
2018-08-14T23:14:07.154Z,10.53
2018-08-14T23:16:37.544Z,17.03
2018-08-14T23:19:08.078Z,15.53
2018-08-14T23:21:37.872Z,19.90
2018-08-14T23:24:09.299Z,10.57
2018-08-14T23:26:38.116Z,15.93
2018-08-14T23:29:08.368Z,16.27
2018-08-14T23:31:38.221Z,12.53
2018-08-14T23:34:08.544Z,13.93
2018-08-14T23:36:38.229Z,14.90
2018-08-14T23:39:10.897Z,16.73
2018-08-14T23:41:41.776Z,16.57
2018-08-14T23:44:11.260Z,11.93
2018-08-14T23:46:40.990Z,11.43
2018-08-14T23:49:12.206Z,13.43
2018-08-14T23:51:43.692Z,13.70
2018-08-14T23:54:13.641Z,15.07
2018-08-14T23:56:43.124Z,9.47
2018-08-14T23:59:12.424Z,13.40
